• Join FlightAware (Why Join?)
  • Login
  • US Flag 
04:54AM EDT


 

Airport Tracker/Info


-or-


 

Live Flight TrackerFlight Track Log ✈ N610DA ✈ 18-Nov-2013 ✈ KGNV - KSFB

Flight Track Log - Related Links

Times and Time Zones

All times are in EST time to prevent confusion due to time zone crossing. See the N610DA flight status page for this flight to view local times or setup timezone preferences in your user account.

Time Position Orientation Groundspeed Altitude Reporting Facility
EST Latitude Longitude Course Direction KTS MPH feet Rate Location/Type
05:43PM 29.5990 -82.1672 135° Southeast  Level Estimated
05:43PM 29.4692 -82.2056 136° Southeast 120 138 5,000  Level Jacksonville Center
05:44PM 29.5837 -82.1499 136° Southeast  Level FlightAware Approximate
05:44PM 29.4378 -82.1844 150° Southeast 130 150 5,000  Level Jacksonville Center
05:45PM 29.5683 -82.1327 136° Southeast  Level FlightAware Approximate
05:45PM 29.4042 -82.1608 149° Southeast 141 162 5,000  Level Jacksonville Center
05:46PM 29.5529 -82.1155 136° Southeast  Level FlightAware Approximate
05:46PM 29.3708 -82.1394 151° Southeast 144 166 5,000  Level Jacksonville Center
05:47PM 29.5376 -82.0983 136° Southeast  Level FlightAware Approximate
05:47PM 29.3350 -82.1161 150° Southeast 140 161 5,000  Level Jacksonville Center
05:48PM 29.5222 -82.0811 136° Southeast  Level FlightAware Approximate
05:48PM 29.3036 -82.0878 142° Southeast 135 155 5,000  Level Jacksonville Center
05:49PM 29.5068 -82.0639 136° Southeast  Level FlightAware Approximate
05:50PM 29.2872 -82.0609 125° Southeast  Level Estimated
05:57PM 29.2009 -81.9201 125° Southeast  Level Estimated
05:58PM 29.1886 -81.9000 125° Southeast  Level Estimated
05:59PM 29.1763 -81.8799 125° Southeast  Level Estimated
06:00PM 29.1639 -81.8598 125° Southeast  Level Estimated
06:01PM 29.1516 -81.8398 125° Southeast  Level Estimated
06:02PM 29.1392 -81.8197 125° Southeast  Level Estimated
06:03PM 29.1269 -81.7996 125° Southeast  Level Estimated
06:04PM 29.1145 -81.7795 125° Southeast  Level Estimated
06:05PM 29.1022 -81.7595 125° Southeast  Level Estimated
06:06PM 29.0898 -81.7394 125° Southeast  Level Estimated
06:07PM 29.0774 -81.7194 125° Southeast  Level Estimated
06:08PM 29.0651 -81.6993 125° Southeast  Level Estimated
06:09PM 29.0527 -81.6793 125° Southeast  Level Estimated
06:10PM 29.0403 -81.6592 125° Southeast  Level Estimated
06:11PM 29.0280 -81.6392 125° Southeast  Level Estimated
06:12PM 29.0156 -81.6192 125° Southeast  Level Estimated
06:13PM 29.0032 -81.5992 125° Southeast  Level Estimated
06:14PM 28.9908 -81.5791 125° Southeast  Level Estimated
06:15PM 28.9784 -81.5591 125° Southeast  Level Estimated
06:16PM 28.9660 -81.5391 125° Southeast  Level Estimated
06:17PM 28.9537 -81.5191 125° Southeast  Level Estimated
06:18PM 28.9413 -81.4991 125° Southeast  Level Estimated
06:19PM 28.9289 -81.4791 125° Southeast  Level Estimated
06:20PM 28.9165 -81.4592 125° Southeast  Level Estimated
06:21PM 28.9041 -81.4392 125° Southeast  Level Estimated
06:22PM 28.8917 -81.4192 125° Southeast  Level Estimated
06:23PM 28.8792 -81.3992 125° Southeast  Level Estimated
06:24PM 28.8668 -81.3792 125° Southeast  Level Estimated
06:25PM 28.8544 -81.3593 125° Southeast  Level Estimated
06:26PM 28.8420 -81.3393 125° Southeast  Level Estimated
06:27PM 28.8296 -81.3193 125° Southeast  Level Estimated
06:28PM 28.8172 -81.2994 125° Southeast  Level Estimated
06:29PM 28.8047 -81.2794 125° Southeast  Level Estimated
06:30PM 28.7923 -81.2595 125° Southeast  Level Estimated